Time;durP1;ratioP1;P1;durP2;ratioP2;P2;SDS_P1;SDS_P2;PMS_P1;PMS_P2;Temp;Humidity;BMP_temperature;BMP_pressure;BME280_temperature;BME280_humidity;BME280_pressure;Samples;Min_cycle;Max_cycle;Signal;HPM_P1;HPM_P2
2023/07/19 00:01:55;;;;;;;3.72;2.33;;;;;;;16.42;81.37;101471.69;6189471;23;20045;-76
2023/07/19 00:04:22;;;;;;;2.42;2.00;;;;;;;16.44;81.08;101472.72;6189118;23;20010;-76
2023/07/19 00:06:48;;;;;;;5.90;1.95;;;;;;;16.47;81.63;101463.00;6189390;23;20049;-76
2023/07/19 00:09:15;;;;;;;2.10;2.00;;;;;;;16.47;81.21;101465.69;6189083;23;20403;-76
2023/07/19 00:11:42;;;;;;;2.92;2.53;;;;;;;16.41;81.67;101464.84;6188335;23;20091;-75
2023/07/19 00:14:09;;;;;;;2.83;2.15;;;;;;;16.36;81.31;101457.44;6162681;23;20460;-75
2023/07/19 00:16:35;;;;;;;2.65;2.42;;;;;;;16.28;81.35;101452.44;6188807;23;20022;-75
2023/07/19 00:19:02;;;;;;;3.22;2.20;;;;;;;16.29;81.41;101461.97;6189439;23;20022;-76
2023/07/19 00:21:45;;;;;;;3.20;2.00;;;;;;;16.24;82.00;101440.38;6162593;23;20029;-77
2023/07/19 00:24:12;;;;;;;3.03;2.30;;;;;;;16.20;82.26;101445.19;6162663;23;20028;-76
2023/07/19 00:26:38;;;;;;;2.20;2.10;;;;;;;16.19;82.60;101449.06;6161963;23;20018;-76
2023/07/19 00:29:05;;;;;;;2.10;1.90;;;;;;;16.16;82.38;101440.00;6190582;23;20014;-77
2023/07/19 00:31:32;;;;;;;1.92;1.83;;;;;;;16.10;82.73;101444.50;6163408;23;20040;-76
2023/07/19 00:33:58;;;;;;;2.47;2.22;;;;;;;16.05;82.83;101439.78;6164689;23;20463;-77
2023/07/19 00:36:25;;;;;;;2.50;2.30;;;;;;;16.01;82.71;101439.94;6163400;23;20414;-77
2023/07/19 00:38:52;;;;;;;3.65;2.10;;;;;;;16.00;83.29;101446.53;6190166;23;20037;-76
2023/07/19 00:41:18;;;;;;;2.75;2.20;;;;;;;15.96;83.05;101442.56;6189676;23;20518;-76
2023/07/19 00:43:47;;;;;;;5.32;2.22;;;;;;;15.90;83.57;101439.03;6190680;23;20045;-76
2023/07/19 00:46:14;;;;;;;2.53;2.33;;;;;;;15.85;83.51;101437.72;6163473;23;20021;-76
2023/07/19 00:48:44;;;;;;;4.57;2.53;;;;;;;15.84;83.73;101436.22;6190615;23;20020;-75
2023/07/19 00:51:10;;;;;;;2.90;2.10;;;;;;;15.81;83.71;101439.09;6163943;23;20026;-75
2023/07/19 00:53:39;;;;;;;2.20;2.00;;;;;;;15.76;84.01;101426.28;6162867;23;20045;-75
2023/07/19 00:56:07;;;;;;;4.40;2.47;;;;;;;15.70;84.12;101436.91;6190474;23;20561;-76
2023/07/19 00:58:35;;;;;;;3.13;2.15;;;;;;;15.67;83.88;101432.44;6189663;23;20076;-76
2023/07/19 01:01:05;;;;;;;2.42;2.30;;;;;;;15.61;84.37;101431.59;6163265;23;20022;-76
2023/07/19 01:03:33;;;;;;;4.00;2.45;;;;;;;15.59;84.56;101425.97;6189727;23;20025;-76
2023/07/19 01:06:00;;;;;;;3.92;2.38;;;;;;;15.58;84.09;101419.88;6190313;23;20411;-76
2023/07/19 01:08:26;;;;;;;4.03;2.42;;;;;;;15.55;84.24;101415.38;6189251;23;20038;-76
2023/07/19 01:10:54;;;;;;;2.40;2.17;;;;;;;15.53;84.30;101414.34;6190341;23;20620;-76
2023/07/19 01:13:21;;;;;;;4.15;2.40;;;;;;;15.52;84.83;101412.88;6190236;23;20025;-76
2023/07/19 01:15:48;;;;;;;7.05;2.20;;;;;;;15.50;85.24;101416.00;6163776;23;20428;-76
2023/07/19 01:18:17;;;;;;;2.38;2.17;;;;;;;15.48;85.38;101415.72;6189953;23;20037;-75
2023/07/19 01:20:44;;;;;;;3.20;2.20;;;;;;;15.49;84.87;101419.13;6190078;23;20421;-76
2023/07/19 01:23:11;;;;;;;2.90;2.00;;;;;;;15.45;84.95;101413.19;6190004;23;20022;-75
2023/07/19 01:25:38;;;;;;;3.50;2.17;;;;;;;15.43;85.05;101419.03;6189653;23;20463;-76
2023/07/19 01:28:07;;;;;;;2.55;2.35;;;;;;;15.39;85.37;101415.75;6190017;23;20018;-76
2023/07/19 01:30:35;;;;;;;2.88;2.00;;;;;;;15.38;85.24;101416.22;6189303;23;20022;-77
2023/07/19 01:33:02;;;;;;;2.70;2.10;;;;;;;15.37;85.46;101418.16;6163362;23;20021;-75
2023/07/19 01:35:29;;;;;;;3.03;2.33;;;;;;;15.33;85.49;101412.97;6162852;23;20494;-75
2023/07/19 01:37:55;;;;;;;2.70;2.50;;;;;;;15.32;85.31;101410.72;6162267;23;20028;-76
2023/07/19 01:40:22;;;;;;;2.42;2.00;;;;;;;15.28;85.60;101416.25;6163048;23;20076;-76
2023/07/19 01:42:50;;;;;;;2.45;2.05;;;;;;;15.27;84.91;101408.66;6163336;23;20020;-75
2023/07/19 01:45:17;;;;;;;7.68;2.60;;;;;;;15.25;85.02;101414.50;6162603;23;20077;-76
2023/07/19 01:47:44;;;;;;;3.03;2.40;;;;;;;15.25;85.42;101409.13;6163390;23;20073;-76
2023/07/19 01:50:11;;;;;;;6.47;2.17;;;;;;;15.22;86.06;101410.03;6189937;23;20018;-75
2023/07/19 01:52:39;;;;;;;2.95;2.10;;;;;;;15.22;85.82;101410.03;6162140;23;20029;-76
2023/07/19 01:55:06;;;;;;;2.58;2.25;;;;;;;15.23;85.24;101410.78;6163412;23;20014;-75
2023/07/19 01:57:33;;;;;;;3.88;2.53;;;;;;;15.21;85.41;101405.88;6188978;23;20017;-76
2023/07/19 02:00:00;;;;;;;3.40;2.70;;;;;;;15.20;85.78;101403.63;6138245;23;20057;-76
2023/07/19 02:02:27;;;;;;;2.67;2.47;;;;;;;15.19;85.97;101402.19;6162390;23;20021;-76
2023/07/19 02:04:54;;;;;;;3.25;2.60;;;;;;;15.15;86.22;101402.34;6163163;23;20052;-77
2023/07/19 02:07:20;;;;;;;5.90;2.53;;;;;;;15.15;85.85;101404.28;6161838;23;20049;-77
2023/07/19 02:09:47;;;;;;;3.05;2.50;;;;;;;15.15;86.18;101409.66;6163778;23;20017;-76
2023/07/19 02:12:13;;;;;;;5.32;2.42;;;;;;;15.13;85.57;101396.69;6190242;23;20022;-77
2023/07/19 02:14:41;;;;;;;2.40;2.20;;;;;;;15.08;86.39;101399.25;6163115;23;20017;-76
2023/07/19 02:17:08;;;;;;;2.30;2.20;;;;;;;15.04;86.42;101415.50;6163434;23;20099;-76
2023/07/19 02:19:34;;;;;;;5.75;2.45;;;;;;;14.96;86.64;101407.03;6189426;23;20017;-77
2023/07/19 02:22:01;;;;;;;3.08;2.78;;;;;;;14.98;86.85;101406.59;6189506;23;20017;-76
2023/07/19 02:24:28;;;;;;;3.33;2.67;;;;;;;14.95;86.99;101404.81;6189101;23;20052;-76
2023/07/19 02:26:54;;;;;;;2.92;2.58;;;;;;;14.92;86.85;101395.72;6189481;23;20040;-76
2023/07/19 02:29:21;;;;;;;7.25;3.13;;;;;;;14.89;86.92;101396.63;6189031;23;20765;-76
2023/07/19 02:31:48;;;;;;;3.75;2.63;;;;;;;14.90;86.57;101395.44;6189830;23;20018;-76
2023/07/19 02:34:18;;;;;;;3.17;2.88;;;;;;;14.87;87.21;101400.97;6189534;23;20020;-76
2023/07/19 02:36:45;;;;;;;3.45;2.72;;;;;;;14.82;86.91;101388.16;6162766;23;20018;-76
2023/07/19 02:39:12;;;;;;;3.35;2.80;;;;;;;14.81;86.80;101392.03;6163179;23;20017;-76
2023/07/19 02:41:38;;;;;;;4.47;3.20;;;;;;;14.81;86.53;101398.16;6189314;23;20022;-76
2023/07/19 02:44:07;;;;;;;3.13;2.90;;;;;;;14.80;86.05;101390.56;6163624;23;20418;-76
2023/07/19 02:46:34;;;;;;;4.10;3.08;;;;;;;14.80;86.81;101401.28;6162504;23;20163;-76
2023/07/19 02:49:00;;;;;;;4.53;2.97;;;;;;;14.80;87.22;101409.31;6189619;23;20033;-76
2023/07/19 02:51:27;;;;;;;4.50;3.03;;;;;;;14.75;87.21;101402.66;6161704;23;20025;-76
2023/07/19 02:53:54;;;;;;;4.63;3.83;;;;;;;14.74;87.21;101403.13;6138730;23;20104;-76
2023/07/19 02:56:20;;;;;;;3.83;3.53;;;;;;;14.75;88.02;101389.25;6189220;23;20013;-76
2023/07/19 02:58:47;;;;;;;4.90;3.30;;;;;;;14.76;87.97;101404.16;6189829;23;20092;-76
2023/07/19 03:01:14;;;;;;;6.32;3.58;;;;;;;14.74;87.58;101406.53;6163006;23;20029;-77
2023/07/19 03:03:43;;;;;;;3.20;3.00;;;;;;;14.77;87.22;101407.56;6163072;23;20056;-76
2023/07/19 03:06:11;;;;;;;3.78;3.42;;;;;;;14.78;87.06;101399.09;6162545;23;20018;-76
2023/07/19 03:08:38;;;;;;;3.40;3.10;;;;;;;14.81;87.67;101398.16;6162187;23;20442;-76
2023/07/19 03:11:06;;;;;;;3.92;3.35;;;;;;;14.81;88.21;101394.72;6163163;23;20451;-75
2023/07/19 03:13:32;;;;;;;4.05;3.28;;;;;;;14.81;88.09;101390.09;6189272;23;20017;-76
2023/07/19 03:15:59;;;;;;;5.65;3.58;;;;;;;14.83;89.05;101389.66;6189924;23;20559;-76
2023/07/19 03:18:26;;;;;;;4.85;3.60;;;;;;;14.81;87.97;101398.16;6188474;23;20017;-76
2023/07/19 03:21:00;;;;;;;4.80;3.50;;;;;;;14.81;88.67;101400.84;6189509;23;20482;-75
2023/07/19 03:23:30;;;;;;;3.40;3.15;;;;;;;14.80;89.85;101395.91;6137636;23;20459;-74
2023/07/19 03:25:58;;;;;;;3.72;3.10;;;;;;;14.77;89.74;101410.25;6189737;23;20018;-75
2023/07/19 03:28:28;;;;;;;6.78;3.45;;;;;;;14.71;90.46;101407.44;6157187;23;20033;-75
2023/07/19 03:30:57;;;;;;;3.60;3.30;;;;;;;14.64;90.92;101402.38;6158139;23;20026;-75
2023/07/19 03:33:25;;;;;;;2.95;2.75;;;;;;;14.63;90.48;101392.88;6156598;23;20021;-75
2023/07/19 03:35:52;;;;;;;3.72;2.92;;;;;;;14.64;91.95;101400.47;6157699;23;20022;-75
2023/07/19 03:38:19;;;;;;;4.32;3.30;;;;;;;14.62;91.19;101402.09;6157135;23;20018;-76
2023/07/19 03:40:48;;;;;;;3.53;3.20;;;;;;;14.62;90.87;101394.06;6157469;23;20078;-76
2023/07/19 03:43:15;;;;;;;2.97;2.67;;;;;;;14.62;91.08;101391.38;6157487;23;20432;-75
2023/07/19 03:45:42;;;;;;;3.72;3.10;;;;;;;14.62;91.34;101397.47;6132990;23;20024;-74
2023/07/19 03:48:09;;;;;;;4.57;3.25;;;;;;;14.61;92.71;101395.25;6156892;23;20105;-74
2023/07/19 03:50:36;;;;;;;6.20;3.40;;;;;;;14.61;92.55;101400.63;6156460;23;20754;-76
2023/07/19 03:53:04;;;;;;;3.72;3.35;;;;;;;14.59;92.39;101397.63;6159397;23;20464;-75
2023/07/19 03:55:32;;;;;;;6.05;2.80;;;;;;;14.60;91.80;101404.47;6156852;23;20018;-75
2023/07/19 03:57:59;;;;;;;3.30;3.00;;;;;;;14.61;92.14;101390.63;6157713;23;20025;-75
2023/07/19 04:00:27;;;;;;;4.65;3.40;;;;;;;14.61;92.56;101387.97;6156888;23;20025;-76
2023/07/19 04:02:53;;;;;;;4.72;3.22;;;;;;;14.66;92.68;101397.31;6158927;23;20025;-76
2023/07/19 04:05:20;;;;;;;3.90;3.50;;;;;;;14.68;92.90;101393.00;6157782;23;20026;-75
2023/07/19 04:07:47;;;;;;;6.35;3.50;;;;;;;14.71;92.85;101387.94;6158580;23;20487;-75
2023/07/19 04:10:13;;;;;;;5.82;3.40;;;;;;;14.74;93.34;101390.47;6160637;23;20081;-75
2023/07/19 04:12:40;;;;;;;3.50;3.17;;;;;;;14.76;92.70;101390.75;6158764;23;20024;-76
2023/07/19 04:15:07;;;;;;;6.22;3.30;;;;;;;14.74;93.89;101401.19;6159144;23;20444;-76
2023/07/19 04:17:34;;;;;;;3.83;3.50;;;;;;;14.71;93.23;101399.41;6157430;23;20077;-76
2023/07/19 04:20:00;;;;;;;4.07;3.30;;;;;;;14.73;94.10;101399.69;6158943;23;20022;-77
2023/07/19 04:22:27;;;;;;;5.30;3.33;;;;;;;14.74;94.18;101393.13;6157898;23;20028;-76
2023/07/19 04:24:55;;;;;;;5.50;3.00;;;;;;;14.80;94.41;101390.56;6159122;23;20041;-76
2023/07/19 04:27:21;;;;;;;3.72;3.42;;;;;;;14.77;93.59;101397.59;6157684;23;20050;-76
2023/07/19 04:29:48;;;;;;;3.92;3.30;;;;;;;14.73;93.83;101399.69;6159097;23;20022;-76
2023/07/19 04:32:16;;;;;;;5.78;3.20;;;;;;;14.73;93.36;101397.00;6158119;23;20022;-76
2023/07/19 04:34:42;;;;;;;4.00;3.60;;;;;;;14.76;93.33;101398.78;6158332;23;20018;-76
2023/07/19 04:37:09;;;;;;;3.53;3.22;;;;;;;14.83;93.08;101390.41;6158722;23;20339;-76
2023/07/19 04:39:36;;;;;;;3.10;2.85;;;;;;;14.88;93.42;101384.44;6157880;23;20048;-75
2023/07/19 04:42:03;;;;;;;3.42;3.13;;;;;;;14.93;93.44;101391.13;6158514;23;20470;-76
2023/07/19 04:44:30;;;;;;;4.53;3.55;;;;;;;14.91;93.48;101398.88;6158093;23;20456;-76
2023/07/19 04:46:57;;;;;;;6.13;3.28;;;;;;;14.89;94.20;101396.63;6157937;23;20475;-76
2023/07/19 04:49:25;;;;;;;5.38;3.60;;;;;;;14.90;95.34;101392.75;6158024;23;20093;-76
2023/07/19 04:51:52;;;;;;;9.43;3.60;;;;;;;14.88;95.81;101397.09;6159962;23;20419;-76
2023/07/19 04:54:19;;;;;;;5.03;3.60;;;;;;;14.86;95.82;101400.22;6159174;23;20018;-75
2023/07/19 04:56:45;;;;;;;7.03;3.70;;;;;;;14.90;96.45;101395.44;6158409;23;20522;-76
2023/07/19 04:59:12;;;;;;;5.25;3.70;;;;;;;14.95;96.71;101396.75;6158558;23;20021;-76
2023/07/19 05:01:39;;;;;;;7.72;3.72;;;;;;;15.02;96.57;101397.19;6157269;23;20472;-76
2023/07/19 05:04:06;;;;;;;9.50;4.13;;;;;;;15.02;95.26;101397.19;6158519;23;20048;-76
2023/07/19 05:06:33;;;;;;;5.35;3.92;;;;;;;15.10;95.47;101404.91;6159353;23;20018;-76
2023/07/19 05:08:59;;;;;;;6.30;4.22;;;;;;;15.15;95.48;101399.66;6158504;23;20030;-76
2023/07/19 05:11:26;;;;;;;9.85;4.30;;;;;;;15.24;95.79;101410.31;6157698;23;20022;-77
2023/07/19 05:13:53;;;;;;;5.82;4.30;;;;;;;15.39;94.90;101398.94;6158445;23;20026;-76
2023/07/19 05:16:19;;;;;;;5.85;4.22;;;;;;;15.39;94.10;101405.03;6156941;23;20017;-76
2023/07/19 05:18:46;;;;;;;5.18;4.65;;;;;;;15.39;93.99;101404.28;6160568;23;20057;-76
2023/07/19 05:21:14;;;;;;;5.95;4.38;;;;;;;15.67;95.36;101402.94;6158015;23;20440;-77
2023/07/19 05:23:41;;;;;;;6.70;4.55;;;;;;;16.67;91.16;101412.06;6158361;23;20045;-77
2023/07/19 05:26:07;;;;;;;6.45;3.95;;;;;;;16.79;89.01;101396.84;6161194;23;20018;-77
2023/07/19 05:28:34;;;;;;;7.40;4.43;;;;;;;17.49;85.98;101408.31;6181588;23;20367;-78
2023/07/19 05:31:04;;;;;;;4.50;3.95;;;;;;;18.66;82.16;101403.38;6190060;23;20017;-77
2023/07/19 05:33:32;;;;;;;5.63;4.20;;;;;;;18.60;78.77;101402.59;6163010;23;20025;-77
2023/07/19 05:36:00;;;;;;;7.28;4.70;;;;;;;18.06;80.33;101404.28;6163184;23;20013;-77
2023/07/19 05:38:27;;;;;;;7.72;4.38;;;;;;;17.82;82.19;101407.97;6189614;23;20017;-77
2023/07/19 05:41:02;;;;;;;5.82;4.63;;;;;;;17.86;81.41;101403.13;6189636;23;20021;-77
2023/07/19 05:43:29;;;;;;;4.50;4.10;;;;;;;19.12;78.97;101399.72;6189686;23;20085;-77
2023/07/19 05:46:07;;;;;;;5.32;4.10;;;;;;;20.73;72.28;101407.47;6190610;23;20018;-78
2023/07/19 05:48:35;;;;;;;4.65;4.20;;;;;;;21.90;67.58;101403.59;6190130;23;20100;-79
2023/07/19 05:51:03;;;;;;;6.00;4.38;;;;;;;22.34;64.41;101409.97;6190685;23;20018;-75
2023/07/19 05:53:30;;;;;;;7.05;4.18;;;;;;;21.78;65.32;101410.31;6190325;23;20017;-75
2023/07/19 05:55:57;;;;;;;6.25;4.55;;;;;;;20.72;68.52;101411.41;6190824;23;20052;-75
2023/07/19 05:58:24;;;;;;;7.03;4.53;;;;;;;19.99;71.56;101405.22;6189876;23;20487;-74
2023/07/19 06:00:51;;;;;;;5.20;4.30;;;;;;;19.49;74.28;101405.03;6164177;23;20081;-76
2023/07/19 06:03:17;;;;;;;5.80;4.05;;;;;;;19.25;75.94;101400.75;6163995;23;20017;-75
2023/07/19 06:05:45;;;;;;;4.57;4.03;;;;;;;19.08;77.38;101407.31;6190554;23;20507;-76
2023/07/19 06:08:12;;;;;;;11.55;4.47;;;;;;;18.93;78.09;101397.41;6190658;23;20444;-76
2023/07/19 06:10:51;;;;;;;7.10;3.92;;;;;;;18.76;78.24;101401.97;6190671;23;20018;-76
2023/07/19 06:13:18;;;;;;;7.50;4.53;;;;;;;18.80;79.44;101388.97;6189773;23;20017;-75
2023/07/19 06:15:45;;;;;;;4.43;3.70;;;;;;;18.88;78.03;101395.41;6190531;23;20360;-75
2023/07/19 06:18:12;;;;;;;4.82;4.10;;;;;;;18.90;78.06;101392.97;6190314;23;20018;-74
2023/07/19 06:20:38;;;;;;;4.60;4.30;;;;;;;19.01;77.63;101394.25;6189734;23;20533;-73
2023/07/19 06:23:05;;;;;;;8.07;4.40;;;;;;;19.13;77.85;101388.44;6190124;23;20052;-74
2023/07/19 06:25:32;;;;;;;4.75;3.88;;;;;;;19.13;76.71;101396.56;6189275;23;20017;-78
2023/07/19 06:27:59;;;;;;;5.15;3.78;;;;;;;19.26;77.12;101393.41;6189140;23;20021;-77
2023/07/19 06:30:26;;;;;;;6.03;3.72;;;;;;;19.29;75.54;101392.44;6190188;23;20020;-77
2023/07/19 06:32:52;;;;;;;7.97;3.88;;;;;;;19.36;76.12;101389.28;6190642;23;20041;-78
2023/07/19 06:35:19;;;;;;;4.88;3.60;;;;;;;19.40;75.08;101395.19;6190319;23;20109;-78
2023/07/19 06:37:45;;;;;;;10.32;3.85;;;;;;;19.26;75.34;101391.44;6190689;23;20025;-78
2023/07/19 06:40:12;;;;;;;8.27;3.90;;;;;;;19.19;76.02;101401.97;6190525;23;20014;-78
2023/07/19 06:42:38;;;;;;;6.20;3.50;;;;;;;19.10;77.08;101404.88;6189226;23;20028;-78
2023/07/19 06:45:06;;;;;;;4.32;3.40;;;;;;;19.10;76.00;101399.47;6190728;23;20013;-78
2023/07/19 06:47:32;;;;;;;6.75;3.15;;;;;;;19.10;74.55;101397.50;6190369;23;20022;-78
2023/07/19 06:49:59;;;;;;;6.70;2.95;;;;;;;19.26;74.12;101401.50;6190609;23;20025;-79
2023/07/19 06:52:25;;;;;;;4.15;2.67;;;;;;;19.38;73.77;101403.03;6190014;23;20423;-79
2023/07/19 06:54:55;;;;;;;6.03;2.78;;;;;;;19.63;74.05;101404.13;6190116;23;20413;-78
2023/07/19 06:57:22;;;;;;;2.67;2.30;;;;;;;19.94;69.62;101403.25;6189405;23;20017;-77
2023/07/19 06:59:52;;;;;;;3.17;2.47;;;;;;;19.94;68.47;101405.94;6190380;23;20014;-77
2023/07/19 07:02:18;;;;;;;3.90;2.40;;;;;;;20.10;69.47;101407.91;6190040;23;20025;-78
2023/07/19 07:04:46;;;;;;;4.05;2.35;;;;;;;20.12;69.11;101404.72;6190072;23;20037;-78
2023/07/19 07:07:15;;;;;;;2.63;2.42;;;;;;;20.12;68.62;101405.47;6190210;23;20511;-78
2023/07/19 07:09:42;;;;;;;4.93;2.40;;;;;;;20.19;67.96;101405.00;6189679;23;20467;-79
2023/07/19 07:12:10;;;;;;;4.68;2.22;;;;;;;20.24;66.99;101409.66;6189541;23;20041;-78
2023/07/19 07:14:38;;;;;;;5.65;2.38;;;;;;;20.33;66.87;101405.25;6189857;23;20018;-78
2023/07/19 07:17:08;;;;;;;2.58;2.10;;;;;;;20.28;66.13;101412.88;6190213;23;20005;-79
2023/07/19 07:19:34;;;;;;;1.80;1.70;;;;;;;20.28;65.96;101404.75;6190144;23;20017;-78
2023/07/19 07:22:01;;;;;;;3.20;1.77;;;;;;;20.42;67.05;101397.63;6189991;23;20028;-78
2023/07/19 07:24:28;;;;;;;3.20;1.95;;;;;;;20.67;65.41;101403.28;6189877;23;20024;-78
2023/07/19 07:26:54;;;;;;;5.90;2.20;;;;;;;20.84;64.57;101401.28;6189205;23;20018;-78
2023/07/19 07:29:21;;;;;;;4.20;2.13;;;;;;;21.24;64.61;101402.69;6188172;23;20036;-77
2023/07/19 07:31:47;;;;;;;3.35;1.60;;;;;;;21.30;61.94;101406.84;6189797;23;20013;-78
2023/07/19 07:34:14;;;;;;;5.88;2.00;;;;;;;21.20;61.55;101408.31;6189729;23;20436;-80
2023/07/19 07:36:41;;;;;;;3.67;2.00;;;;;;;21.37;60.65;101407.56;6188587;23;20096;-78
2023/07/19 07:39:07;;;;;;;2.90;1.90;;;;;;;21.20;61.16;101411.03;6189217;23;20060;-78
2023/07/19 07:41:34;;;;;;;2.65;2.08;;;;;;;21.38;61.82;101411.75;6188711;23;20436;-78
2023/07/19 07:44:01;;;;;;;2.05;1.45;;;;;;;21.66;61.63;101408.91;6189864;23;20596;-78
2023/07/19 07:46:29;;;;;;;3.45;1.45;;;;;;;21.91;59.74;101405.06;6189612;23;20032;-79
2023/07/19 07:48:59;;;;;;;4.97;1.83;;;;;;;21.98;59.30;101401.84;6189560;23;20418;-78
2023/07/19 07:51:27;;;;;;;5.15;1.70;;;;;;;21.90;61.00;101406.31;6160902;23;20298;-79
2023/07/19 07:53:53;;;;;;;3.50;1.48;;;;;;;21.76;59.88;101399.25;6161713;23;20013;-78
2023/07/19 07:56:22;;;;;;;1.70;1.60;;;;;;;22.02;60.63;101399.59;6188079;23;20026;-79
2023/07/19 07:58:51;;;;;;;4.47;1.65;;;;;;;22.26;60.21;101396.22;6188271;23;20013;-79
2023/07/19 08:01:18;;;;;;;9.05;2.65;;;;;;;22.51;58.48;101388.84;6161777;23;20025;-79
2023/07/19 08:03:45;;;;;;;3.00;2.13;;;;;;;22.55;59.10;101397.44;6188090;23;20017;-79
2023/07/19 08:06:12;;;;;;;5.72;2.20;;;;;;;22.72;58.93;101387.19;6190237;23;20021;-79
2023/07/19 08:08:39;;;;;;;3.40;2.30;;;;;;;22.74;58.83;101395.56;6188556;23;20024;-79
2023/07/19 08:11:05;;;;;;;9.70;2.50;;;;;;;22.80;59.47;101384.66;6189581;23;20471;-79
2023/07/19 08:13:33;;;;;;;3.22;2.08;;;;;;;22.88;59.31;101389.00;6162375;23;20023;-79
2023/07/19 08:15:59;;;;;;;5.43;2.92;;;;;;;23.09;58.51;101394.72;6162948;23;20022;-79
2023/07/19 08:18:26;;;;;;;5.97;1.92;;;;;;;23.43;58.56;101386.88;6189332;23;20021;-80
2023/07/19 08:20:54;;;;;;;3.47;2.35;;;;;;;23.46;57.52;101385.84;6189127;23;20073;-82
2023/07/19 08:23:20;;;;;;;3.15;2.25;;;;;;;23.23;56.56;101384.66;6162532;23;20076;-83
2023/07/19 08:25:47;;;;;;;5.22;2.38;;;;;;;23.04;56.42;101376.50;6163363;23;20046;-76
2023/07/19 08:28:14;;;;;;;3.08;2.35;;;;;;;22.81;57.42;101384.13;6188949;23;20017;-77
2023/07/19 08:30:40;;;;;;;5.47;2.40;;;;;;;22.60;58.18;101381.13;6189179;23;20048;-74
2023/07/19 08:33:08;;;;;;;2.78;2.17;;;;;;;22.80;58.24;101379.94;6189265;23;20396;-78
2023/07/19 08:35:35;;;;;;;3.53;2.22;;;;;;;22.56;57.67;101379.94;6188886;23;20022;-78
2023/07/19 08:38:02;;;;;;;5.80;2.13;;;;;;;22.38;59.58;101373.19;6188867;23;20020;-78
2023/07/19 08:40:31;;;;;;;5.95;2.13;;;;;;;22.42;59.55;101368.22;6188758;23;20084;-75
2023/07/19 08:42:58;;;;;;;7.20;2.40;;;;;;;22.37;59.85;101371.00;6189257;23;20374;-74
2023/07/19 08:45:26;;;;;;;6.15;2.60;;;;;;;22.46;57.67;101367.94;6188800;23;20105;-74
2023/07/19 08:47:53;;;;;;;5.07;2.40;;;;;;;22.61;58.30;101371.75;6189872;23;20436;-73
2023/07/19 08:50:21;;;;;;;2.45;2.25;;;;;;;22.75;58.22;101369.88;6190221;23;20088;-75
2023/07/19 08:52:48;;;;;;;8.43;2.13;;;;;;;23.00;56.29;101369.88;6190061;23;20044;-76
2023/07/19 08:55:15;;;;;;;3.83;1.90;;;;;;;22.97;56.98;101371.63;6190421;23;20017;-77
2023/07/19 08:57:43;;;;;;;4.13;2.03;;;;;;;22.79;57.45;101373.06;6190239;23;20041;-73
2023/07/19 09:00:10;;;;;;;4.90;2.17;;;;;;;22.71;56.61;101368.69;6190620;23;20447;-74
2023/07/19 09:02:37;;;;;;;5.63;2.30;;;;;;;22.73;57.01;101371.63;6162931;23;20029;-73
2023/07/19 09:05:12;;;;;;;2.97;1.95;;;;;;;22.92;57.06;101373.16;6190293;23;20014;-73
2023/07/19 09:07:40;;;;;;;3.03;2.25;;;;;;;23.00;55.40;101367.91;6189463;23;20455;-74
2023/07/19 09:10:09;;;;;;;5.10;2.30;;;;;;;23.00;54.64;101364.47;6190489;23;20020;-75
2023/07/19 09:12:40;;;;;;;5.65;2.38;;;;;;;22.87;55.67;101373.22;6190265;23;20089;-74
2023/07/19 09:15:09;;;;;;;2.35;2.00;;;;;;;22.74;55.83;101373.84;6190540;23;20492;-74
2023/07/19 09:17:39;;;;;;;10.32;2.38;;;;;;;22.63;56.28;101376.66;6189850;23;20020;-74
2023/07/19 09:20:07;;;;;;;4.53;2.27;;;;;;;22.51;55.61;101373.31;6190513;23;20024;-73
2023/07/19 09:22:35;;;;;;;4.18;2.03;;;;;;;22.50;56.38;101379.97;6137926;23;20313;-75
2023/07/19 09:25:03;;;;;;;5.47;2.10;;;;;;;22.51;56.87;101376.03;6190444;23;20018;-75
2023/07/19 09:27:30;;;;;;;4.72;2.05;;;;;;;22.81;57.22;101367.13;6158403;23;20140;-73
2023/07/19 09:29:58;;;;;;;12.27;3.15;;;;;;;23.39;55.36;101370.13;6160833;23;20069;-74
2023/07/19 09:32:24;;;;;;;6.47;2.20;;;;;;;23.43;54.43;101367.13;6158514;23;20428;-75
2023/07/19 09:34:55;;;;;;;4.63;2.88;;;;;;;23.42;54.84;101368.38;6160302;23;20022;-75
2023/07/19 09:37:23;;;;;;;4.75;2.53;;;;;;;23.57;54.53;101371.44;6159608;23;20108;-76
2023/07/19 09:39:50;;;;;;;4.68;2.28;;;;;;;23.99;52.09;101372.53;6160842;23;20014;-76
2023/07/19 09:42:18;;;;;;;2.80;1.88;;;;;;;24.16;53.20;101377.69;6158536;23;20045;-76
2023/07/19 09:44:46;;;;;;;4.20;2.38;;;;;;;23.64;51.92;101362.66;6160277;23;20081;-75
2023/07/19 09:47:14;;;;;;;2.80;2.05;;;;;;;23.21;53.76;101373.56;6158412;23;20018;-76
2023/07/19 09:49:55;;;;;;;5.45;2.15;;;;;;;23.00;54.07;101375.31;6158225;23;20448;-76
2023/07/19 09:52:24;;;;;;;2.63;2.00;;;;;;;22.94;55.33;101378.09;6159807;23;20065;-75
2023/07/19 09:54:53;;;;;;;2.60;2.17;;;;;;;22.90;55.13;101372.22;6158420;23;20018;-76
2023/07/19 09:57:23;;;;;;;5.32;2.17;;;;;;;22.95;54.77;101374.13;6158166;23;20367;-76
2023/07/19 09:59:51;;;;;;;5.32;1.92;;;;;;;22.79;54.74;101370.34;6160308;23;20069;-75
2023/07/19 10:02:21;;;;;;;4.75;2.10;;;;;;;22.68;55.10;101372.44;6160017;23;20054;-75
2023/07/19 10:04:47;;;;;;;4.88;2.60;;;;;;;22.55;55.50;101370.31;6159512;23;20018;-78
2023/07/19 10:07:25;;;;;;;2.65;2.00;;;;;;;22.44;56.60;101375.84;6158446;23;20483;-77
2023/07/19 10:10:07;;;;;;;6.32;2.08;;;;;;;22.11;57.07;101379.56;6158690;23;20049;-77
2023/07/19 10:12:36;;;;;;;7.72;2.30;;;;;;;22.02;59.64;101379.88;6159933;23;20436;-78
2023/07/19 10:15:07;;;;;;;2.38;2.03;;;;;;;21.90;60.21;101382.66;6160604;23;20036;-78
2023/07/19 10:17:58;;;;;;;5.60;2.22;;;;;;;21.75;61.15;101387.66;6158712;23;20021;-78
2023/07/19 10:20:33;;;;;;;4.40;1.90;;;;;;;21.71;62.58;101381.78;6159626;23;20018;-78
2023/07/19 10:23:05;;;;;;;2.20;2.00;;;;;;;21.85;64.12;101385.41;6160191;23;20024;-79
2023/07/19 10:25:31;;;;;;;;;;;;;;;22.13;63.24;101379.81;6160201;23;20025;-75
2023/07/19 10:28:08;;;;;;;5.55;2.03;;;;;;;22.68;63.79;101373.16;6173723;23;19920;-74
2023/07/19 10:30:44;;;;;;;4.53;2.25;;;;;;;23.50;62.78;101378.16;6189753;23;20435;-74
2023/07/19 10:33:21;;;;;;;6.00;2.30;;;;;;;23.83;60.99;101376.97;6189699;23;20017;-75
2023/07/19 10:35:51;;;;;;;6.90;2.10;;;;;;;23.62;59.64;101376.03;6189910;23;20017;-76
2023/07/19 10:38:21;;;;;;;4.18;2.30;;;;;;;23.42;59.10;101379.25;6163755;23;20072;-75
2023/07/19 10:40:59;;;;;;;4.47;2.50;;;;;;;23.34;58.93;101370.22;6189898;23;20017;-74
2023/07/19 10:43:27;;;;;;;3.15;1.90;;;;;;;22.99;57.68;101379.28;6189391;23;20028;-74
2023/07/19 10:46:13;;;;;;;3.83;2.35;;;;;;;22.65;56.97;101379.59;6190031;23;20100;-74
2023/07/19 10:48:40;;;;;;;3.75;2.10;;;;;;;22.42;58.96;101381.03;6189061;23;20018;-74
2023/07/19 10:51:09;;;;;;;2.67;2.20;;;;;;;22.43;58.59;101385.22;6189857;23;20085;-74
2023/07/19 10:53:47;;;;;;;5.45;2.78;;;;;;;22.44;59.13;101381.28;6189577;23;20037;-74
2023/07/19 10:56:18;;;;;;;2.47;2.28;;;;;;;22.41;58.83;101385.72;6189877;23;20017;-74
2023/07/19 10:58:45;;;;;;;;;;;;;;;22.43;59.57;101380.53;6190256;23;20013;-75
2023/07/19 11:01:12;;;;;;;3.95;2.60;;;;;;;22.40;60.36;101380.81;6163533;23;20002;-73
2023/07/19 11:03:44;;;;;;;4.97;2.60;;;;;;;22.82;60.28;101374.75;6188665;23;20017;-74
2023/07/19 11:06:11;;;;;;;5.55;3.00;;;;;;;23.20;58.31;101375.56;6189778;23;20584;-73
2023/07/19 11:08:38;;;;;;;3.67;2.65;;;;;;;23.47;57.65;101373.00;6189432;23;20155;-74
2023/07/19 11:11:06;;;;;;;3.58;2.55;;;;;;;23.53;56.41;101371.72;6189557;23;20020;-73
2023/07/19 11:13:34;;;;;;;3.20;2.17;;;;;;;23.37;56.61;101380.06;6162819;23;20064;-74
2023/07/19 11:16:01;;;;;;;2.22;1.90;;;;;;;23.24;57.58;101375.25;6163155;23;20022;-74
2023/07/19 11:18:40;;;;;;;9.68;2.90;;;;;;;23.17;57.06;101376.59;6188819;23;20408;-74
2023/07/19 11:21:07;;;;;;;2.45;2.05;;;;;;;23.24;56.83;101377.97;6190037;23;20052;-74
2023/07/19 11:23:41;;;;;;;4.93;2.20;;;;;;;23.44;56.39;101377.47;6189159;23;20021;-73
2023/07/19 11:26:11;;;;;;;2.70;2.20;;;;;;;23.63;56.21;101376.75;6189856;23;20018;-73
2023/07/19 11:29:10;;;;;;;5.45;2.10;;;;;;;23.58;55.40;101375.59;6188899;23;20396;-75
2023/07/19 11:31:40;;;;;;;3.33;2.30;;;;;;;23.81;55.29;101379.47;6107678;23;20087;-76